Terminal Aerodrome Forecast
Issued by NWS

Home | Current Version | Previous Version | Text Only | Print | Product List | Glossary On
Versions: 1 2 3 4 5 6 7 8 9 10 11 12 13
000
FTAK31 PAJN 251720
TAFAGY
TAF
PAGY 251720Z 2518/2618 21017G25KT P6SM VCSH BKN045 OVC070
     FM260200 21012KT P6SM VCSH SCT030 BKN045
     FM261200 21008KT P6SM -RA FEW015 OVC025
      AMD LTD TO CLD VIS AND WIND=

USA.gov is the U.S. government's official web portal to all federal, state and local government web resources and services.